Time,TemperatureF,DewpointF,PressureIn,WindDirection,WindDirectionDegrees,WindSpeedMPH,WindSpeedGustMPH,Humidity,HourlyPrecipIn,Conditions,Clouds,dailyrainin,SoftwareType,DateUTC
2013-05-26 00:00:00,49.8,26.0,30.11,West,261,1.0,-999.0,39,-99.99,,,0.00,weatherlink.com 1.10,2013-05-26 04:00:00,
2013-05-26 00:15:00,49.2,22.0,30.10,West,261,0.0,-999.0,35,-99.99,,,0.00,weatherlink.com 1.10,2013-05-26 04:15:00,
2013-05-26 00:30:00,50.1,17.0,30.11,West,261,0.0,-999.0,27,-99.99,,,0.00,weatherlink.com 1.10,2013-05-26 04:30:00,
2013-05-26 00:45:00,50.4,21.0,30.10,West,261,3.0,-999.0,31,-99.99,,,0.00,weatherlink.com 1.10,2013-05-26 04:45:00,
2013-05-26 01:00:00,49.6,22.0,30.10,West,261,1.0,-999.0,34,-99.99,,,0.00,weatherlink.com 1.10,2013-05-26 05:00:00,
2013-05-26 01:15:00,49.6,22.0,30.09,West,261,0.0,-999.0,34,-99.99,,,0.00,weatherlink.com 1.10,2013-05-26 05:15:00,
2013-05-26 01:30:00,49.8,20.0,30.09,West,261,0.0,-999.0,31,-99.99,,,0.00,weatherlink.com 1.10,2013-05-26 05:30:00,
2013-05-26 01:45:00,48.9,21.0,30.10,West,261,3.0,-999.0,34,-99.99,,,0.00,weatherlink.com 1.10,2013-05-26 05:45:00,
2013-05-26 02:00:00,49.2,20.0,30.09,West,261,3.0,-999.0,32,-99.99,,,0.00,weatherlink.com 1.10,2013-05-26 06:00:00,
2013-05-26 02:15:00,49.5,19.0,30.07,West,261,2.0,-999.0,30,-99.99,,,0.00,weatherlink.com 1.10,2013-05-26 06:15:00,
2013-05-26 02:30:00,49.9,21.0,30.06,West,261,2.0,-999.0,32,-99.99,,,0.00,weatherlink.com 1.10,2013-05-26 06:30:00,
2013-05-26 02:45:00,50.5,21.0,30.06,West,261,0.0,-999.0,31,-99.99,,,0.00,weatherlink.com 1.10,2013-05-26 06:45:00,
2013-05-26 03:00:00,50.8,23.0,30.05,West,261,0.0,-999.0,34,-99.99,,,0.00,weatherlink.com 1.10,2013-05-26 07:00:00,
2013-05-26 03:15:00,50.5,25.0,30.06,West,261,0.0,-999.0,37,-99.99,,,0.00,weatherlink.com 1.10,2013-05-26 07:15:00,
2013-05-26 03:30:00,50.2,23.0,30.05,West,261,0.0,-999.0,35,-99.99,,,0.00,weatherlink.com 1.10,2013-05-26 07:30:00,
2013-05-26 03:45:00,50.2,18.0,30.05,West,261,0.0,-999.0,28,-99.99,,,0.00,weatherlink.com 1.10,2013-05-26 07:45:00,
2013-05-26 04:00:00,50.7,18.0,30.05,West,261,0.0,-999.0,27,-99.99,,,0.00,weatherlink.com 1.10,2013-05-26 08:00:00,
2013-05-26 04:15:00,49.9,19.0,30.07,West,261,1.0,-999.0,29,-99.99,,,0.00,weatherlink.com 1.10,2013-05-26 08:15:00,
2013-05-26 04:30:00,50.4,23.0,30.07,West,261,0.0,-999.0,34,-99.99,,,0.00,weatherlink.com 1.10,2013-05-26 08:30:00,
2013-05-26 04:45:00,50.4,25.0,30.08,West,261,0.0,-999.0,38,-99.99,,,0.00,weatherlink.com 1.10,2013-05-26 08:45:00,
2013-05-26 05:00:00,50.7,27.0,30.08,West,261,0.0,-999.0,40,-99.99,,,0.00,weatherlink.com 1.10,2013-05-26 09:00:00,
2013-05-26 05:15:00,49.8,28.0,30.10,West,261,0.0,-999.0,44,-99.99,,,0.00,weatherlink.com 1.10,2013-05-26 09:15:00,
2013-05-26 05:30:00,49.6,28.0,30.10,West,261,0.0,-999.0,43,-99.99,,,0.00,weatherlink.com 1.10,2013-05-26 09:30:00,
2013-05-26 05:45:00,49.5,28.0,30.10,NE,53,0.0,-999.0,44,-99.99,,,0.00,weatherlink.com 1.10,2013-05-26 09:45:00,
2013-05-26 06:00:00,48.8,32.0,30.11,NE,51,2.0,-999.0,53,-99.99,,,0.00,weatherlink.com 1.10,2013-05-26 10:00:00,
2013-05-26 06:15:00,47.3,37.0,30.11,WSW,248,0.0,-999.0,68,-99.99,,,0.00,weatherlink.com 1.10,2013-05-26 10:15:00,
2013-05-26 06:30:00,48.3,33.0,30.12,WSW,241,2.0,-999.0,55,-99.99,,,0.00,weatherlink.com 1.10,2013-05-26 10:30:00,
2013-05-26 06:45:00,49.1,31.0,30.12,WNW,290,2.0,-999.0,51,-99.99,,,0.00,weatherlink.com 1.10,2013-05-26 10:45:00,
2013-05-26 07:00:00,48.8,34.0,30.12,SW,234,0.0,-999.0,57,-99.99,,,0.00,weatherlink.com 1.10,2013-05-26 11:00:00,
2013-05-26 07:15:00,47.6,35.0,30.17,SW,234,0.0,-999.0,62,-99.99,,,0.00,weatherlink.com 1.10,2013-05-26 11:15:00,
2013-05-26 07:30:00,46.8,39.0,30.17,WNW,290,1.0,-999.0,73,-99.99,,,0.00,weatherlink.com 1.10,2013-05-26 11:30:00,
2013-05-26 07:45:00,47.4,36.0,30.17,WSW,257,4.0,-999.0,65,-99.99,,,0.00,weatherlink.com 1.10,2013-05-26 11:45:00,
2013-05-26 08:00:00,47.6,38.0,30.17,WSW,240,3.0,-999.0,69,-99.99,,,0.00,weatherlink.com 1.10,2013-05-26 12:00:00,
2013-05-26 08:15:00,46.7,40.0,30.17,WSW,246,2.0,-999.0,78,-99.99,,,0.01,weatherlink.com 1.10,2013-05-26 12:15:00,
2013-05-26 08:30:00,45.5,40.0,30.18,WSW,246,0.0,-999.0,81,-99.99,,,0.01,weatherlink.com 1.10,2013-05-26 12:30:00,
2013-05-26 08:45:00,47.0,43.0,30.18,West,259,2.0,-999.0,85,-99.99,,,0.01,weatherlink.com 1.10,2013-05-26 12:45:00,
2013-05-26 09:00:00,48.0,43.0,30.18,WSW,255,3.0,-999.0,82,-99.99,,,0.01,weatherlink.com 1.10,2013-05-26 13:00:00,
2013-05-26 09:15:00,49.2,42.0,30.17,WSW,239,0.0,-999.0,77,-99.99,,,0.01,weatherlink.com 1.10,2013-05-26 13:15:00,
2013-05-26 09:30:00,49.6,43.0,30.16,SW,232,0.0,-999.0,77,-99.99,,,0.01,weatherlink.com 1.10,2013-05-26 13:30:00,
2013-05-26 09:45:00,52.8,45.0,30.14,SE,125,0.0,-999.0,76,-99.99,,,0.01,weatherlink.com 1.10,2013-05-26 13:45:00,
2013-05-26 10:00:00,55.9,45.0,30.12,East,84,3.0,-999.0,66,-99.99,,,0.01,weatherlink.com 1.10,2013-05-26 14:00:00,
2013-05-26 10:15:00,53.6,44.0,30.16,East,82,0.0,-999.0,70,-99.99,,,0.01,weatherlink.com 1.10,2013-05-26 14:15:00,
2013-05-26 10:30:00,50.5,43.0,30.17,East,82,0.0,-999.0,74,-99.99,,,0.01,weatherlink.com 1.10,2013-05-26 14:30:00,
2013-05-26 10:45:00,50.1,43.0,30.18,East,82,0.0,-999.0,77,-99.99,,,0.01,weatherlink.com 1.10,2013-05-26 14:45:00,
2013-05-26 11:00:00,52.0,44.0,30.18,East,82,0.0,-999.0,73,-99.99,,,0.01,weatherlink.com 1.10,2013-05-26 15:00:00,
2013-05-26 11:15:00,53.6,45.0,30.16,East,82,0.0,-999.0,73,-99.99,,,0.01,weatherlink.com 1.10,2013-05-26 15:15:00,
2013-05-26 11:30:00,52.6,44.0,30.18,NE,44,2.0,-999.0,72,-99.99,,,0.01,weatherlink.com 1.10,2013-05-26 15:30:00,
2013-05-26 11:45:00,52.9,44.0,30.18,NE,46,0.0,-999.0,71,-99.99,,,0.01,weatherlink.com 1.10,2013-05-26 15:45:00,
2013-05-26 12:00:00,52.6,42.0,30.18,NE,46,0.0,-999.0,68,-99.99,,,0.01,weatherlink.com 1.10,2013-05-26 16:00:00,
2013-05-26 12:15:00,53.6,45.0,30.16,East,96,4.0,-999.0,72,-99.99,,,0.01,weatherlink.com 1.10,2013-05-26 16:15:00,
2013-05-26 12:30:00,54.4,46.0,30.16,East,98,0.0,-999.0,72,-99.99,,,0.01,weatherlink.com 1.10,2013-05-26 16:30:00,
2013-05-26 12:45:00,56.2,44.0,30.16,SE,126,0.0,-999.0,65,-99.99,,,0.01,weatherlink.com 1.10,2013-05-26 16:45:00,
2013-05-26 13:01:00,57.8,47.0,30.14,ENE,60,0.0,-999.0,68,-99.99,,,0.01,weatherlink.com 1.10,2013-05-26 17:01:00,
2013-05-26 13:16:00,58.4,45.0,30.14,East,96,3.0,-999.0,62,-99.99,,,0.01,weatherlink.com 1.10,2013-05-26 17:16:00,
2013-05-26 13:31:00,59.0,47.0,30.14,ENE,69,1.0,-999.0,64,-99.99,,,0.01,weatherlink.com 1.10,2013-05-26 17:31:00,
2013-05-26 13:46:00,59.2,48.0,30.13,East,80,2.0,-999.0,67,-99.99,,,0.01,weatherlink.com 1.10,2013-05-26 17:46:00,
2013-05-26 14:01:00,60.5,48.0,30.13,NE,55,3.0,-999.0,63,-99.99,,,0.01,weatherlink.com 1.10,2013-05-26 18:01:00,
2013-05-26 14:16:00,61.8,46.0,30.11,NE,55,2.0,-999.0,56,-99.99,,,0.01,weatherlink.com 1.10,2013-05-26 18:16:00,
2013-05-26 14:31:00,59.8,46.0,30.11,NE,47,0.0,-999.0,60,-99.99,,,0.01,weatherlink.com 1.10,2013-05-26 18:31:00,
2013-05-26 14:46:00,61.2,44.0,30.10,NE,43,2.0,-999.0,53,-99.99,,,0.01,weatherlink.com 1.10,2013-05-26 18:46:00,
2013-05-26 15:01:00,62.7,46.0,30.08,East,98,1.0,-999.0,55,-99.99,,,0.01,weatherlink.com 1.10,2013-05-26 19:01:00,
2013-05-26 15:16:00,62.6,38.0,30.09,SW,216,0.0,-999.0,40,-99.99,,,0.01,weatherlink.com 1.10,2013-05-26 19:16:00,
2013-05-26 15:31:00,63.7,42.0,30.08,NE,49,2.0,-999.0,45,-99.99,,,0.01,weatherlink.com 1.10,2013-05-26 19:31:00,
2013-05-26 15:46:00,64.0,43.0,30.08,SSW,204,0.0,-999.0,46,-99.99,,,0.01,weatherlink.com 1.10,2013-05-26 19:46:00,
2013-05-26 16:01:00,64.0,40.0,30.08,NNE,20,0.0,-999.0,41,-99.99,,,0.01,weatherlink.com 1.10,2013-05-26 20:01:00,
2013-05-26 16:16:00,64.3,42.0,30.08,NW,309,0.0,-999.0,44,-99.99,,,0.01,weatherlink.com 1.10,2013-05-26 20:16:00,
2013-05-26 16:31:00,63.7,42.0,30.08,NNE,26,1.0,-999.0,46,-99.99,,,0.01,weatherlink.com 1.10,2013-05-26 20:31:00,
2013-05-26 16:46:00,64.2,43.0,30.07,ENE,74,5.0,-999.0,47,-99.99,,,0.01,weatherlink.com 1.10,2013-05-26 20:46:00,
2013-05-26 17:01:00,63.9,43.0,30.07,SW,226,0.0,-999.0,47,-99.99,,,0.01,weatherlink.com 1.10,2013-05-26 21:01:00,
2013-05-26 17:16:00,64.2,44.0,30.07,ENE,78,0.0,-999.0,49,-99.99,,,0.01,weatherlink.com 1.10,2013-05-26 21:16:00,
2013-05-26 17:31:00,63.9,47.0,30.06,SE,146,0.0,-999.0,55,-99.99,,,0.01,weatherlink.com 1.10,2013-05-26 21:31:00,
2013-05-26 17:46:00,64.0,46.0,30.07,North,350,0.0,-999.0,53,-99.99,,,0.01,weatherlink.com 1.10,2013-05-26 21:46:00,
2013-05-26 18:01:00,62.3,45.0,30.08,NNE,26,0.0,-999.0,54,-99.99,,,0.01,weatherlink.com 1.10,2013-05-26 22:01:00,
2013-05-26 18:16:00,61.5,46.0,30.08,NE,40,0.0,-999.0,58,-99.99,,,0.01,weatherlink.com 1.10,2013-05-26 22:16:00,
2013-05-26 18:31:00,61.3,45.0,30.08,NE,40,0.0,-999.0,56,-99.99,,,0.01,weatherlink.com 1.10,2013-05-26 22:31:00,
2013-05-26 18:47:00,60.4,46.0,30.09,NE,40,0.0,-999.0,59,-99.99,,,0.01,weatherlink.com 1.10,2013-05-26 22:47:00,
2013-05-26 19:01:00,60.4,45.0,30.08,NE,40,0.0,-999.0,57,-99.99,,,0.01,weatherlink.com 1.10,2013-05-26 23:01:00,
2013-05-26 19:16:00,59.9,44.0,30.10,NE,40,0.0,-999.0,57,-99.99,,,0.01,weatherlink.com 1.10,2013-05-26 23:16:00,
2013-05-26 19:31:00,58.0,46.0,30.11,NE,40,0.0,-999.0,65,-99.99,,,0.01,weatherlink.com 1.10,2013-05-26 23:31:00,
2013-05-26 19:46:00,56.2,47.0,30.12,NE,40,0.0,-999.0,71,-99.99,,,0.01,weatherlink.com 1.10,2013-05-26 23:46:00,
2013-05-26 20:01:00,55.4,46.0,30.13,NE,40,1.0,-999.0,71,-99.99,,,0.01,weatherlink.com 1.10,2013-05-27 00:01:00,
2013-05-26 20:16:00,55.1,45.0,30.13,NE,40,0.0,-999.0,70,-99.99,,,0.01,weatherlink.com 1.10,2013-05-27 00:16:00,
2013-05-26 20:31:00,54.5,46.0,30.13,NE,40,2.0,-999.0,72,-99.99,,,0.01,weatherlink.com 1.10,2013-05-27 00:31:00,
2013-05-26 20:46:00,53.6,46.0,30.12,NE,40,1.0,-999.0,74,-99.99,,,0.01,weatherlink.com 1.10,2013-05-27 00:46:00,
2013-05-26 21:01:00,53.3,44.0,30.13,NE,36,0.0,-999.0,72,-99.99,,,0.01,weatherlink.com 1.10,2013-05-27 01:01:00,
2013-05-26 21:16:00,53.2,44.0,30.10,West,267,3.0,-999.0,72,-99.99,,,0.01,weatherlink.com 1.10,2013-05-27 01:16:00,
2013-05-26 21:31:00,52.5,44.0,30.11,West,267,0.0,-999.0,73,-99.99,,,0.01,weatherlink.com 1.10,2013-05-27 01:31:00,
2013-05-26 21:46:00,52.8,43.0,30.11,West,267,0.0,-999.0,69,-99.99,,,0.01,weatherlink.com 1.10,2013-05-27 01:46:00,
2013-05-26 22:01:00,52.3,43.0,30.11,West,267,0.0,-999.0,71,-99.99,,,0.01,weatherlink.com 1.10,2013-05-27 02:01:00,
2013-05-26 22:16:00,52.0,43.0,30.13,West,267,1.0,-999.0,71,-99.99,,,0.01,weatherlink.com 1.10,2013-05-27 02:16:00,
2013-05-26 22:31:00,50.7,43.0,30.14,West,267,4.0,-999.0,75,-99.99,,,0.01,weatherlink.com 1.10,2013-05-27 02:31:00,
2013-05-26 22:46:00,51.7,43.0,30.14,WSW,247,2.0,-999.0,73,-99.99,,,0.01,weatherlink.com 1.10,2013-05-27 02:46:00,
2013-05-26 23:01:00,52.0,44.0,30.14,WSW,241,3.0,-999.0,74,-99.99,,,0.01,weatherlink.com 1.10,2013-05-27 03:01:00,
2013-05-26 23:16:00,51.4,44.0,30.14,WSW,241,0.0,-999.0,75,-99.99,,,0.01,weatherlink.com 1.10,2013-05-27 03:16:00,
2013-05-26 23:31:00,51.6,44.0,30.14,WSW,241,0.0,-999.0,74,-99.99,,,0.01,weatherlink.com 1.10,2013-05-27 03:31:00,
2013-05-26 23:46:00,53.1,43.0,30.12,WSW,246,2.0,-999.0,69,-99.99,,,0.01,weatherlink.com 1.10,2013-05-27 03:46:00,